Wales, Michigan
Current Conditions -  °F | °C
As of 2:17 AM on Sunday 23 Nov 2014 (Local Time) from KPHN Reporting Station
Broken Clouds Broken Clouds  
Wind Chill:   Ceiling: 4900
Heat Index:   Visibility: 7mi
Dew Point:   Wind: 6mph
Humidity: 100%   Direction: 190°S
Pressure: 29.94"   Gusts: NA
Location:  42.9446°N, 82.6827°W
Report Text: KPHN 230717Z AUTO 19005KT 7SM SCT038 BKN049 05/05 A2994 RMK AO2
Loading
Personal Weather Stations






























Interactive Weather Map New forecast layout! Learn more

10-Day Weather Forecast

Advertisements
Track Severe Weather on mobile